Time;durP1;ratioP1;P1;durP2;ratioP2;P2;SDS_P1;SDS_P2;PMS_P1;PMS_P2;Temp;Humidity;BMP_temperature;BMP_pressure;BME280_temperature;BME280_humidity;BME280_pressure;Samples;Min_cycle;Max_cycle;Signal;HPM_P1;HPM_P2
2023/12/16 00:05:05;;;;;;;18.97;6.33;;;0.00;99.90;;;-1.99;100.00;102043.03;10405482;27;96739;-81
2023/12/16 00:10:09;;;;;;;15.63;6.93;;;0.00;99.90;;;-2.00;100.00;102046.53;10437741;27;96685;-81
2023/12/16 00:15:14;;;;;;;9.80;4.43;;;0.00;99.90;;;-2.09;100.00;102041.59;10437494;27;98268;-81
2023/12/16 00:20:17;;;;;;;6.93;3.33;;;0.00;99.90;;;-2.09;100.00;102039.00;10447298;27;97128;-81
2023/12/16 00:25:21;;;;;;;9.63;3.83;;;0.00;99.90;;;-2.07;100.00;102036.34;10440509;27;98084;-81
2023/12/16 00:30:24;;;;;;;9.30;3.57;;;-0.10;99.90;;;-1.95;100.00;102026.44;10437340;27;98543;-81
2023/12/16 00:35:28;;;;;;;8.00;3.90;;;0.00;99.90;;;-1.70;100.00;102018.75;10437577;27;96553;-81
2023/12/16 00:40:31;;;;;;;8.07;3.33;;;0.30;99.90;;;-1.52;100.00;102033.00;10461380;27;96614;-81
2023/12/16 00:45:36;;;;;;;7.00;3.57;;;0.40;99.90;;;-1.44;100.00;102031.03;10465114;27;96731;-82
2023/12/16 00:50:42;;;;;;;7.83;3.80;;;0.60;99.90;;;-1.42;100.00;102054.44;10442515;27;96576;-81
2023/12/16 00:55:45;;;;;;;8.00;3.57;;;0.60;99.90;;;-1.42;100.00;102055.31;10446137;27;96580;-81
2023/12/16 01:00:49;;;;;;;10.47;3.63;;;0.60;99.90;;;-1.48;100.00;102055.47;10445332;27;96946;-82
2023/12/16 01:05:52;;;;;;;18.17;6.20;;;0.60;99.90;;;-1.51;100.00;102062.53;10458536;27;96561;-81
2023/12/16 01:10:56;;;;;;;23.30;7.50;;;0.50;99.90;;;-1.63;100.00;102069.81;10478360;27;96927;-82
2023/12/16 01:15:59;;;;;;;21.50;9.07;;;0.50;99.90;;;-1.79;100.00;102055.53;10462543;27;96607;-81
2023/12/16 01:21:06;;;;;;;25.17;7.93;;;0.40;99.90;;;-1.82;100.00;102067.78;10445844;27;96607;-81
2023/12/16 01:26:10;;;;;;;17.53;6.43;;;0.30;99.90;;;-1.82;100.00;102076.44;10456372;27;96730;-81
2023/12/16 01:31:14;;;;;;;12.03;5.33;;;0.20;99.90;;;-1.90;100.00;102074.06;10451713;27;96679;-81
2023/12/16 01:36:19;;;;;;;9.60;3.93;;;0.20;99.90;;;-1.97;100.00;102080.34;10444271;27;96542;-82
2023/12/16 01:41:22;;;;;;;9.67;3.63;;;0.10;99.90;;;-2.02;100.00;102078.75;10428665;27;97347;-81
2023/12/16 01:46:27;;;;;;;15.20;5.50;;;0.00;99.90;;;-2.10;100.00;102073.72;10434505;27;96651;-81
2023/12/16 01:51:32;;;;;;;16.97;6.33;;;0.00;99.90;;;-2.12;100.00;102082.50;10438827;27;96574;-81
2023/12/16 01:56:37;;;;;;;12.60;5.10;;;0.00;99.90;;;-2.19;100.00;102093.06;10448659;27;98535;-82
2023/12/16 02:01:41;;;;;;;20.77;7.90;;;-0.10;99.90;;;-2.25;100.00;102074.16;10442338;27;97171;-81
2023/12/16 02:06:45;;;;;;;65.23;22.03;;;-0.20;99.90;;;-2.32;100.00;102049.16;10445635;27;96668;-81
2023/12/16 02:11:49;;;;;;;48.70;16.20;;;-0.30;99.90;;;-2.35;100.00;102070.91;10431398;27;98275;-81
2023/12/16 02:16:52;;;;;;;29.43;10.90;;;-0.30;99.90;;;-2.36;100.00;102081.38;10453256;27;96645;-82
2023/12/16 02:21:56;;;;;;;17.90;6.77;;;-0.40;99.90;;;-2.44;100.00;102077.22;10429345;27;97473;-82
2023/12/16 02:26:59;;;;;;;13.80;5.77;;;-0.40;99.90;;;-2.44;100.00;102086.78;10438877;27;97036;-82
2023/12/16 02:32:03;;;;;;;13.63;5.57;;;-0.40;99.90;;;-2.39;100.00;102090.13;10424203;27;96897;-82
2023/12/16 02:37:06;;;;;;;9.53;4.57;;;-0.40;99.90;;;-2.47;100.00;102086.84;10429577;27;96550;-81
2023/12/16 02:42:10;;;;;;;14.83;5.40;;;-0.40;99.90;;;-2.48;100.00;102111.19;10452221;27;96709;-81
2023/12/16 02:47:13;;;;;;;9.97;3.97;;;-0.50;99.90;;;-2.54;100.00;102120.00;10443914;27;96795;-82
2023/12/16 02:52:17;;;;;;;10.63;4.63;;;-0.60;99.90;;;-2.59;100.00;102119.25;10420564;27;96662;-82
2023/12/16 02:57:20;;;;;;;12.30;4.10;;;-0.60;99.90;;;-2.55;100.00;102114.84;10444086;27;97007;-81
2023/12/16 03:02:24;;;;;;;10.37;3.67;;;-0.60;99.90;;;-2.50;100.00;102110.38;10440302;27;96618;-82
2023/12/16 03:07:28;;;;;;;13.27;4.60;;;-0.50;99.90;;;-2.49;100.00;102125.94;10444712;27;96671;-82
2023/12/16 03:12:31;;;;;;;10.00;3.80;;;-0.50;99.90;;;-2.52;100.00;102115.63;10453011;27;96652;-82
2023/12/16 03:17:35;;;;;;;9.37;3.50;;;-0.50;99.90;;;-2.48;100.00;102119.00;10444339;27;96683;-82
2023/12/16 03:22:39;;;;;;;6.23;2.80;;;-0.50;99.90;;;-2.47;100.00;102123.31;10443119;27;96549;-82
2023/12/16 03:27:43;;;;;;;8.70;3.17;;;-0.50;99.90;;;-2.36;100.00;102125.66;10466518;27;96489;-82
2023/12/16 03:32:47;;;;;;;7.77;2.93;;;-0.40;99.90;;;-2.33;100.00;102125.59;10465033;27;96924;-82
2023/12/16 03:37:50;;;;;;;6.37;2.83;;;-0.30;99.90;;;-2.26;100.00;102147.97;10457254;27;96574;-82
2023/12/16 03:42:53;;;;;;;5.93;2.40;;;-0.30;99.90;;;-2.32;100.00;102142.91;10466811;27;96587;-82
2023/12/16 03:47:57;;;;;;;7.03;2.73;;;-0.30;99.90;;;-2.31;100.00;102152.44;10465287;27;98104;-82
2023/12/16 03:53:00;;;;;;;6.87;2.77;;;-0.30;99.90;;;-2.31;100.00;102170.66;10453222;27;96579;-82
2023/12/16 03:58:04;;;;;;;8.13;3.53;;;-0.30;99.90;;;-2.38;100.00;102153.47;10462209;27;96534;-81
2023/12/16 04:03:07;;;;;;;9.60;4.27;;;-0.40;99.90;;;-2.45;100.00;102164.03;10455985;27;97433;-82
2023/12/16 04:08:11;;;;;;;14.83;5.60;;;-0.40;99.90;;;-2.48;100.00;102171.91;10462142;27;96679;-82
2023/12/16 04:13:15;;;;;;;13.10;4.97;;;-0.50;99.90;;;-2.55;100.00;102165.16;10491841;27;97752;-82
2023/12/16 04:18:19;;;;;;;11.43;4.90;;;-0.50;99.90;;;-2.60;100.00;102169.59;10471515;27;96567;-81
2023/12/16 04:23:24;;;;;;;6.67;2.70;;;-0.60;99.90;;;-2.60;100.00;102185.22;10486094;27;97234;-82
2023/12/16 04:28:27;;;;;;;5.30;2.57;;;-0.60;99.90;;;-2.54;100.00;102187.69;10483696;27;97419;-81
2023/12/16 04:33:31;;;;;;;5.80;2.63;;;-0.60;99.90;;;-2.52;100.00;102193.72;10461768;27;96694;-81
2023/12/16 04:38:36;;;;;;;6.57;2.83;;;-0.50;99.90;;;-2.55;100.00;102199.00;10465111;27;96479;-81
2023/12/16 04:43:42;;;;;;;8.30;4.07;;;-0.50;99.90;;;-2.62;100.00;102187.00;10492549;27;96558;-81
2023/12/16 04:48:45;;;;;;;9.30;4.13;;;-0.50;99.90;;;-2.66;100.00;102190.56;10487936;27;96507;-81
2023/12/16 04:53:49;;;;;;;11.07;4.63;;;-0.60;99.90;;;-2.73;100.00;102207.22;10474814;27;96538;-82
2023/12/16 04:58:52;;;;;;;8.70;3.50;;;-0.60;99.90;;;-2.79;100.00;102204.75;10470236;27;96940;-81
2023/12/16 05:03:56;;;;;;;7.97;3.30;;;-0.70;99.90;;;-2.91;100.00;102198.06;10479288;27;96614;-81
2023/12/16 05:09:00;;;;;;;6.00;2.77;;;-0.80;99.90;;;-2.93;100.00;102212.84;10458613;27;96604;-81
2023/12/16 05:14:04;;;;;;;8.80;4.13;;;-0.90;99.90;;;-2.91;100.00;102225.81;10480196;27;96985;-82
2023/12/16 05:19:07;;;;;;;10.33;4.53;;;-0.90;99.90;;;-2.97;100.00;102227.66;10471585;27;97492;-81
2023/12/16 05:24:12;;;;;;;16.13;6.60;;;-0.90;99.90;;;-2.96;100.00;102242.38;10467971;27;97111;-81
2023/12/16 05:29:16;;;;;;;14.77;6.07;;;-0.90;99.90;;;-3.02;100.00;102233.84;10478652;27;96746;-82
2023/12/16 05:34:19;;;;;;;11.27;4.67;;;-1.00;99.90;;;-3.04;100.00;102241.69;10465432;27;96947;-82
2023/12/16 05:39:23;;;;;;;14.33;5.53;;;-1.10;99.90;;;-3.06;100.00;102233.06;10477451;27;97852;-81
2023/12/16 05:44:26;;;;;;;9.13;4.10;;;-1.10;99.90;;;-3.07;100.00;102233.06;10471400;27;96373;-81
2023/12/16 05:49:29;;;;;;;11.17;4.80;;;-1.10;99.90;;;-2.97;100.00;102245.88;10468146;27;96547;-82
2023/12/16 05:54:33;;;;;;;9.70;4.47;;;-1.00;99.90;;;-2.85;100.00;102241.31;10443491;27;97575;-82
2023/12/16 05:59:37;;;;;;;14.00;5.57;;;-0.90;99.90;;;-2.85;100.00;102242.16;10451833;27;96490;-82
2023/12/16 06:04:42;;;;;;;10.97;4.90;;;-0.80;99.90;;;-2.86;100.00;102247.41;10441814;27;96694;-82
2023/12/16 06:09:45;;;;;;;9.03;4.50;;;-0.90;99.90;;;-2.83;100.00;102240.38;10482445;27;96471;-82
2023/12/16 06:14:49;;;;;;;11.80;4.97;;;-0.90;99.90;;;-2.77;100.00;102244.59;10473664;27;96779;-84
2023/12/16 06:19:52;;;;;;;16.70;5.17;;;-0.80;99.90;;;-2.77;100.00;102252.41;10459626;27;97437;-82
2023/12/16 06:24:58;;;;;;;35.17;11.40;;;-0.80;99.90;;;-2.85;100.00;102241.31;10460356;27;96550;-82
2023/12/16 06:30:01;;;;;;;24.50;9.93;;;-0.80;99.90;;;-2.82;100.00;102251.63;10442320;27;96993;-82
2023/12/16 06:35:06;;;;;;;19.67;10.43;;;-0.80;99.90;;;-2.91;100.00;102246.63;10422460;27;96925;-82
2023/12/16 06:40:09;;;;;;;20.37;10.10;;;-0.80;99.90;;;-2.83;100.00;102255.13;10418768;27;96638;-82
2023/12/16 06:45:13;;;;;;;23.27;10.30;;;-0.80;99.90;;;-2.77;100.00;102274.06;10487276;27;96595;-82
2023/12/16 06:50:16;;;;;;;26.40;10.60;;;-0.80;99.90;;;-2.66;100.00;102294.66;10449891;27;96839;-83
2023/12/16 06:55:20;;;;;;;35.63;12.70;;;-0.70;99.90;;;-2.50;100.00;102298.66;10458752;27;96597;-83
2023/12/16 07:00:24;;;;;;;67.30;20.70;;;-0.70;99.90;;;-2.29;100.00;102294.72;10465980;27;96520;-82
2023/12/16 07:05:32;;;;;;;28.90;9.47;;;-0.50;99.90;;;-2.28;100.00;102295.56;10461487;27;97698;-83
2023/12/16 07:10:36;;;;;;;45.27;14.97;;;-0.40;99.90;;;-2.29;100.00;102320.75;10485782;27;96552;-83
2023/12/16 07:15:40;;;;;;;96.87;23.43;;;-0.40;99.90;;;-2.39;100.00;102308.84;10480981;27;96707;-83
2023/12/16 07:20:43;;;;;;;35.47;13.40;;;-0.40;99.90;;;-2.43;100.00;102315.88;10433757;27;97025;-83
2023/12/16 07:25:47;;;;;;;64.40;18.53;;;-0.40;99.90;;;-2.47;100.00;102306.41;10432779;27;96660;-83
2023/12/16 07:30:50;;;;;;;47.47;18.30;;;-0.40;99.90;;;-2.03;100.00;102317.59;10467533;27;96550;-84
2023/12/16 07:35:54;;;;;;;40.93;15.10;;;-0.20;99.90;;;-1.56;100.00;102315.59;10488221;27;96496;-84
2023/12/16 07:40:57;;;;;;;56.37;20.17;;;0.00;99.90;;;-1.11;100.00;102315.28;10467678;27;98370;-84
2023/12/16 07:46:03;;;;;;;48.53;18.10;;;0.30;99.90;;;-0.70;100.00;102326.31;10482133;27;96575;-83
2023/12/16 07:51:13;;;;;;;46.37;19.33;;;0.70;99.90;;;-0.08;100.00;102347.13;10447549;27;96656;-84
2023/12/16 07:56:26;;;;;;;77.77;20.47;;;1.10;99.90;;;0.48;100.00;102344.44;10439018;27;96511;-83
2023/12/16 08:01:29;;;;;;;48.23;14.83;;;1.50;99.90;;;0.96;100.00;102341.06;10454819;27;96772;-84
2023/12/16 08:06:33;;;;;;;43.00;16.13;;;2.00;99.90;;;1.38;100.00;102314.22;10470557;27;96641;-84
2023/12/16 08:11:37;;;;;;;37.07;16.63;;;2.50;99.90;;;1.80;100.00;102330.09;10430363;27;96464;-84
2023/12/16 08:16:40;;;;;;;27.97;12.77;;;2.90;99.90;;;2.10;100.00;102334.16;10456115;27;96574;-84
2023/12/16 08:21:44;;;;;;;25.80;11.97;;;3.30;99.90;;;2.46;100.00;102338.81;10428828;27;96605;-84
2023/12/16 08:26:49;;;;;;;25.50;11.00;;;3.60;99.90;;;2.65;100.00;102338.91;10446583;27;96866;-84
2023/12/16 08:31:54;;;;;;;55.20;17.20;;;4.00;99.90;;;2.94;100.00;102338.50;10449374;27;96564;-83
2023/12/16 08:36:58;;;;;;;23.17;10.97;;;4.30;99.90;;;3.31;100.00;102346.53;10477653;27;97301;-83
2023/12/16 08:42:02;;;;;;;127.53;29.60;;;4.60;99.90;;;3.48;100.00;102347.50;10448075;27;96576;-83
2023/12/16 08:47:08;;;;;;;119.20;29.53;;;4.90;99.90;;;3.53;100.00;102359.56;10473749;27;96564;-83
2023/12/16 08:52:12;;;;;;;66.53;18.83;;;5.10;99.90;;;2.89;100.00;102353.59;10463782;27;96948;-81
2023/12/16 08:57:17;;;;;;;28.20;11.97;;;4.80;99.90;;;2.14;100.00;102347.97;10462114;27;96700;-82
2023/12/16 09:02:22;;;;;;;17.27;8.10;;;4.30;99.90;;;1.56;100.00;102342.34;10463560;27;97341;-83
2023/12/16 09:07:25;;;;;;;128.50;29.17;;;3.90;99.90;;;1.34;100.00;102351.03;10429535;27;96518;-82
2023/12/16 09:12:29;;;;;;;78.57;20.50;;;3.60;99.90;;;1.49;100.00;102343.50;10497888;27;96410;-82
2023/12/16 09:17:32;;;;;;;155.10;38.57;;;3.70;99.90;;;1.48;100.00;102337.41;10485862;27;96589;-82
2023/12/16 09:22:36;;;;;;;124.60;31.83;;;3.70;99.90;;;1.39;100.00;102343.00;10465800;27;96876;-82
2023/12/16 09:27:41;;;;;;;141.53;35.20;;;3.60;99.90;;;1.23;100.00;102340.09;10456668;27;96791;-82
2023/12/16 09:32:45;;;;;;;38.17;14.90;;;3.50;99.90;;;1.13;100.00;102338.69;10482074;27;96521;-82
2023/12/16 09:37:49;;;;;;;138.17;31.00;;;3.40;99.90;;;1.05;100.00;102332.88;10452202;27;96453;-82
2023/12/16 09:43:02;;;;;;;134.70;29.97;;;3.30;99.90;;;1.01;100.00;102336.50;10438132;27;98394;-82
2023/12/16 09:48:05;;;;;;;81.30;23.27;;;3.20;99.90;;;1.01;100.00;102333.91;10444565;27;96860;-82
2023/12/16 09:53:09;;;;;;;34.33;14.03;;;3.20;99.90;;;0.99;100.00;102333.09;10457526;27;96554;-82
2023/12/16 09:58:16;;;;;;;142.97;33.40;;;3.20;99.90;;;1.05;100.00;102327.66;10436419;27;97615;-82
2023/12/16 10:03:19;;;;;;;109.90;24.30;;;3.20;99.90;;;1.11;100.00;102327.44;10444056;27;96590;-82
2023/12/16 10:08:23;;;;;;;80.07;21.23;;;3.30;99.90;;;1.19;100.00;102312.28;10440662;27;98045;-83
2023/12/16 10:13:32;;;;;;;55.40;17.00;;;3.40;99.90;;;1.31;100.00;102306.59;10433765;27;97909;-82
2023/12/16 10:18:36;;;;;;;62.73;19.73;;;3.40;99.90;;;1.52;100.00;102297.09;10451336;27;96544;-82
2023/12/16 10:23:40;;;;;;;60.87;19.20;;;3.60;99.90;;;1.70;100.00;102286.81;10432393;27;96840;-82
2023/12/16 10:28:48;;;;;;;173.33;36.53;;;3.80;99.90;;;2.12;100.00;102279.00;10417942;27;97204;-81
2023/12/16 10:33:52;;;;;;;21.63;7.70;;;4.10;99.90;;;2.33;100.00;102264.97;10429284;27;96825;-82
2023/12/16 10:38:57;;;;;;;10.90;5.67;;;4.40;99.90;;;2.67;100.00;102264.41;10473879;27;96470;-82
2023/12/16 10:44:01;;;;;;;12.83;6.03;;;4.70;99.90;;;2.99;100.00;102272.63;10473239;27;96779;-81
2023/12/16 10:49:08;;;;;;;9.63;4.63;;;5.00;99.90;;;3.44;100.00;102276.72;10443365;27;97820;-81
2023/12/16 10:54:32;;;;;;;9.63;4.40;;;5.50;99.90;;;3.78;100.00;102268.13;10450297;27;96743;-81
2023/12/16 10:59:43;;;;;;;14.30;6.50;;;5.90;99.90;;;3.87;100.00;102270.28;10457659;27;97328;-81
2023/12/16 11:05:10;;;;;;;13.50;7.10;;;6.00;99.90;;;3.96;100.00;102269.00;10452026;27;96492;-81
2023/12/16 11:10:14;;;;;;;18.23;8.73;;;6.00;99.90;;;3.86;100.00;102265.09;10459655;27;96922;-81
2023/12/16 11:15:19;;;;;;;15.80;6.37;;;6.00;99.90;;;3.79;100.00;102255.81;10460958;27;97717;-82
2023/12/16 11:20:32;;;;;;;14.77;7.67;;;6.00;99.90;;;3.71;100.00;102262.25;10457730;27;97245;-83
2023/12/16 11:25:36;;;;;;;10.80;4.87;;;5.90;99.90;;;3.79;100.00;102277.69;10475374;27;96929;-81
2023/12/16 11:30:43;;;;;;;135.70;32.53;;;6.00;99.90;;;3.69;100.00;102265.91;10457013;27;97056;-81
2023/12/16 11:35:53;;;;;;;23.60;9.67;;;6.00;99.90;;;3.60;100.00;102256.69;10484517;27;96525;-81
2023/12/16 11:40:58;;;;;;;148.23;33.83;;;5.90;99.90;;;3.59;100.00;102243.59;10440453;27;97683;-81
2023/12/16 11:46:02;;;;;;;43.70;13.93;;;6.00;99.90;;;3.67;100.00;102252.00;10450891;27;96854;-83
2023/12/16 11:51:06;;;;;;;71.77;26.83;;;6.00;99.90;;;3.67;100.00;102252.84;10438668;27;96547;-81
2023/12/16 11:56:09;;;;;;;10.17;5.30;;;6.00;99.90;;;3.93;100.00;102243.69;10455798;27;96643;-82
2023/12/16 12:01:13;;;;;;;13.13;6.13;;;6.10;99.90;;;4.24;100.00;102248.28;10477465;27;97600;-82
2023/12/16 12:06:18;;;;;;;14.70;5.87;;;6.30;99.90;;;4.30;100.00;102247.09;10438142;27;96629;-83
2023/12/16 12:11:22;;;;;;;10.97;5.47;;;6.30;99.90;;;4.33;100.00;102254.03;10446234;27;97021;-83
2023/12/16 12:16:29;;;;;;;12.63;5.90;;;6.30;99.90;;;4.29;100.00;102248.03;10454543;27;98311;-82
2023/12/16 12:21:35;;;;;;;10.43;4.83;;;6.40;99.90;;;4.27;100.00;102242.03;10439761;27;97605;-83
2023/12/16 12:26:39;;;;;;;11.47;5.63;;;6.30;99.90;;;4.34;100.00;102242.56;10417739;27;96539;-82
2023/12/16 12:31:48;;;;;;;9.63;4.93;;;6.40;99.90;;;4.38;100.00;102229.16;10451292;27;96848;-82
2023/12/16 12:36:55;;;;;;;11.60;5.40;;;6.40;99.90;;;4.39;99.46;102230.00;10467782;27;96435;-82
2023/12/16 12:42:01;;;;;;;29.40;11.97;;;6.50;99.90;;;4.44;97.28;102228.00;10444987;27;97482;-81
2023/12/16 12:47:05;;;;;;;14.27;7.43;;;6.50;99.90;;;4.46;95.55;102216.44;10454363;27;96837;-81
2023/12/16 12:52:09;;;;;;;11.17;6.43;;;6.50;99.90;;;4.37;96.69;102216.06;10462139;27;96750;-82
2023/12/16 12:57:20;;;;;;;12.63;5.03;;;6.40;99.90;;;4.32;97.41;102213.69;10460637;27;97244;-81
2023/12/16 13:02:25;;;;;;;10.77;6.20;;;6.40;99.90;;;4.32;96.38;102199.66;10474706;27;96487;-81
2023/12/16 13:07:28;;;;;;;25.73;9.13;;;6.40;99.90;;;4.21;98.52;102195.81;10461378;27;97031;-82
2023/12/16 13:12:31;;;;;;;7.47;3.73;;;6.30;99.90;;;4.16;98.81;102192.56;10436987;27;96541;-82
2023/12/16 13:17:35;;;;;;;18.87;7.13;;;6.30;99.90;;;4.19;98.81;102204.69;10460966;27;96570;-81
2023/12/16 13:22:41;;;;;;;12.80;5.77;;;6.30;99.90;;;4.11;100.00;102188.44;10443564;27;97830;-81
2023/12/16 13:27:44;;;;;;;14.50;7.03;;;6.20;99.90;;;4.06;100.00;102193.09;10453017;27;96532;-83
2023/12/16 13:32:48;;;;;;;12.50;6.50;;;6.20;99.90;;;4.04;100.00;102219.47;10456077;27;97779;-83
2023/12/16 13:37:52;;;;;;;10.93;6.27;;;6.10;99.90;;;3.98;100.00;102204.84;10473052;27;97043;-83
2023/12/16 13:42:55;;;;;;;17.87;8.10;;;6.10;99.90;;;3.89;100.00;102200.03;10449433;27;96636;-83
2023/12/16 13:48:00;;;;;;;19.63;8.13;;;6.00;99.90;;;3.83;100.00;102205.59;10461625;27;97140;-83
2023/12/16 13:53:04;;;;;;;26.23;12.80;;;5.90;99.90;;;3.79;100.00;102200.59;10417401;28;96847;-83
2023/12/16 13:58:08;;;;;;;44.20;12.30;;;5.80;99.90;;;3.79;100.00;102213.72;10447286;27;96717;-83
2023/12/16 14:03:12;;;;;;;17.00;8.67;;;5.80;99.90;;;3.68;100.00;102212.47;10477447;27;96680;-83
2023/12/16 14:08:15;;;;;;;23.23;11.37;;;5.70;99.90;;;3.54;100.00;102214.03;10461372;27;96787;-83
2023/12/16 14:13:19;;;;;;;16.37;6.87;;;5.60;99.90;;;3.41;100.00;102219.88;10476704;27;96483;-83
2023/12/16 14:18:22;;;;;;;9.90;5.43;;;5.40;99.90;;;3.24;100.00;102217.22;10481944;27;96502;-82
2023/12/16 14:23:27;;;;;;;10.67;5.20;;;5.30;99.90;;;3.20;100.00;102227.00;10442060;27;98121;-83
2023/12/16 14:28:30;;;;;;;8.67;4.43;;;5.20;99.90;;;2.93;100.00;102208.09;10473099;27;96451;-83
2023/12/16 14:33:34;;;;;;;13.27;5.50;;;5.10;99.90;;;2.87;100.00;102224.13;10484340;27;96496;-83
2023/12/16 14:38:37;;;;;;;12.50;5.63;;;5.00;99.90;;;2.65;100.00;102210.28;10478369;27;97230;-83
2023/12/16 14:43:42;;;;;;;13.73;6.30;;;4.80;99.90;;;2.52;100.00;102203.84;10458167;27;96818;-83
2023/12/16 14:48:45;;;;;;;11.27;5.07;;;4.70;99.90;;;2.44;100.00;102209.44;10459254;27;96845;-83
2023/12/16 14:53:49;;;;;;;18.73;8.10;;;4.50;99.90;;;2.32;100.00;102217.81;10466028;27;97342;-83
2023/12/16 14:58:53;;;;;;;19.17;6.87;;;4.40;99.90;;;2.20;100.00;102228.84;10443235;27;97740;-83
2023/12/16 15:03:56;;;;;;;44.30;15.73;;;4.30;99.90;;;2.10;100.00;102233.63;10438690;27;96696;-83
2023/12/16 15:09:00;;;;;;;15.73;6.90;;;4.20;99.90;;;2.04;100.00;102236.47;10448638;27;96519;-83
2023/12/16 15:14:03;;;;;;;11.47;6.07;;;4.10;99.90;;;1.97;100.00;102227.16;10461242;27;96567;-83
2023/12/16 15:19:07;;;;;;;13.23;5.97;;;4.00;99.90;;;1.85;100.00;102218.88;10466542;27;96537;-83
2023/12/16 15:24:11;;;;;;;11.63;5.37;;;3.90;99.90;;;1.84;100.00;102225.03;10464925;27;98268;-82
2023/12/16 15:29:14;;;;;;;25.63;11.03;;;3.90;99.90;;;1.84;100.00;102227.66;10445680;27;96985;-82
2023/12/16 15:34:19;;;;;;;18.43;7.27;;;3.90;99.90;;;1.85;100.00;102225.91;10474748;27;97146;-82
2023/12/16 15:39:26;;;;;;;15.80;7.43;;;3.80;99.90;;;1.92;100.00;102223.88;10473663;27;96657;-82
2023/12/16 15:44:30;;;;;;;20.80;9.50;;;3.90;99.90;;;1.91;100.00;102216.94;10468298;27;96546;-82
2023/12/16 15:49:34;;;;;;;21.10;8.50;;;3.90;99.90;;;2.02;100.00;102231.31;10458066;27;96547;-83
2023/12/16 15:54:38;;;;;;;18.93;9.27;;;4.00;99.90;;;2.06;100.00;102235.53;10455963;27;97549;-82
2023/12/16 15:59:41;;;;;;;16.93;8.83;;;4.00;99.90;;;2.08;100.00;102236.28;10446435;27;96713;-82
2023/12/16 16:04:45;;;;;;;23.33;10.20;;;4.00;99.90;;;2.11;100.00;102238.81;10461143;27;97003;-83
2023/12/16 16:09:49;;;;;;;17.50;8.33;;;4.00;99.90;;;2.21;100.00;102230.53;10470972;27;96822;-83
2023/12/16 16:14:52;;;;;;;92.50;25.20;;;4.10;99.90;;;2.25;100.00;102230.34;10454383;27;97002;-83
2023/12/16 16:19:57;;;;;;;35.53;13.60;;;4.20;99.90;;;2.30;100.00;102228.41;10463454;27;97007;-83
2023/12/16 16:25:01;;;;;;;23.47;12.10;;;4.20;99.90;;;2.25;100.00;102227.72;10483157;27;97091;-83
2023/12/16 16:30:07;;;;;;;20.43;8.93;;;4.20;99.90;;;2.14;100.00;102235.19;10465954;27;97434;-83
2023/12/16 16:35:13;;;;;;;20.17;9.17;;;4.10;99.90;;;2.04;100.00;102246.97;10464518;27;97022;-83
2023/12/16 16:40:18;;;;;;;19.23;9.93;;;4.00;99.90;;;1.85;100.00;102255.59;10474021;27;96483;-83
2023/12/16 16:45:22;;;;;;;23.07;10.50;;;3.90;99.90;;;1.72;100.00;102259.63;10472775;27;97927;-82
2023/12/16 16:50:26;;;;;;;25.63;10.80;;;3.80;99.90;;;1.56;100.00;102250.63;10458057;27;96598;-82
2023/12/16 16:55:32;;;;;;;22.63;10.70;;;3.60;99.90;;;1.34;100.00;102243.63;10459163;27;97033;-82
2023/12/16 17:00:38;;;;;;;23.10;9.20;;;3.50;99.90;;;1.45;100.00;102255.47;10458530;27;98184;-82
2023/12/16 17:05:41;;;;;;;19.57;8.77;;;3.50;99.90;;;1.49;100.00;102259.66;10462510;27;97967;-82
2023/12/16 17:10:45;;;;;;;28.33;11.00;;;3.50;99.90;;;1.44;100.00;102238.91;10439356;27;96613;-82
2023/12/16 17:15:48;;;;;;;101.50;23.00;;;3.50;99.90;;;1.62;100.00;102266.16;10445646;27;96912;-82
2023/12/16 17:20:52;;;;;;;51.83;19.93;;;3.60;99.90;;;1.57;100.00;102242.75;10454194;27;96675;-82
2023/12/16 17:26:02;;;;;;;33.77;15.70;;;3.60;99.90;;;1.69;100.00;102272.84;10459786;27;96699;-82
2023/12/16 17:31:06;;;;;;;19.80;8.93;;;3.70;99.90;;;1.76;100.00;102289.19;10469760;27;97326;-82
2023/12/16 17:36:10;;;;;;;17.50;7.77;;;3.70;99.90;;;1.88;100.00;102279.06;10460879;27;96920;-82
2023/12/16 17:41:14;;;;;;;21.27;8.00;;;3.80;99.90;;;1.98;100.00;102287.44;10463521;27;96558;-82
2023/12/16 17:46:18;;;;;;;16.70;8.63;;;3.90;99.90;;;2.03;100.00;102289.84;10466762;27;96997;-82
2023/12/16 17:51:22;;;;;;;21.23;8.43;;;4.00;99.90;;;2.00;100.00;102279.50;10443791;27;96625;-82
2023/12/16 17:56:25;;;;;;;19.63;8.10;;;4.00;99.90;;;1.94;100.00;102290.25;10459220;27;96599;-82
2023/12/16 18:01:28;;;;;;;15.00;7.33;;;4.00;99.90;;;1.98;100.00;102307.53;10449957;27;96621;-82
2023/12/16 18:06:32;;;;;;;17.13;7.73;;;3.90;99.90;;;1.99;100.00;102307.50;10469361;27;96745;-82
2023/12/16 18:11:37;;;;;;;15.33;8.23;;;3.90;99.90;;;2.12;100.00;102307.84;10444887;27;96625;-82
2023/12/16 18:16:41;;;;;;;13.07;7.70;;;4.00;99.90;;;2.15;100.00;102297.22;10481140;27;96702;-82
2023/12/16 18:21:44;;;;;;;17.73;8.17;;;4.10;99.90;;;2.17;100.00;102305.06;10441480;27;96634;-82
2023/12/16 18:26:48;;;;;;;19.23;9.73;;;4.20;99.90;;;2.10;100.00;102305.31;10459696;27;98032;-82
2023/12/16 18:31:51;;;;;;;21.47;9.97;;;4.10;99.90;;;2.07;100.00;102313.28;10471380;27;97953;-82
2023/12/16 18:36:55;;;;;;;18.50;9.70;;;4.00;99.90;;;2.06;100.00;102308.09;10469550;27;97987;-83
2023/12/16 18:41:58;;;;;;;16.37;8.47;;;4.00;99.90;;;2.07;100.00;102312.44;10493080;27;96559;-82
2023/12/16 18:47:03;;;;;;;17.03;8.60;;;4.00;99.90;;;2.17;100.00;102326.03;10440338;27;96518;-83
2023/12/16 18:52:07;;;;;;;23.67;9.83;;;4.10;99.90;;;2.21;100.00;102320.59;10481523;27;96550;-82
2023/12/16 18:57:10;;;;;;;17.93;9.00;;;4.10;99.90;;;2.19;100.00;102319.78;10494378;27;96481;-83
2023/12/16 19:02:14;;;;;;;23.97;10.77;;;4.10;99.90;;;2.14;100.00;102311.25;10474996;27;96569;-83
2023/12/16 19:07:18;;;;;;;20.30;9.37;;;4.10;99.90;;;2.17;100.00;102319.03;10482475;27;96916;-82
2023/12/16 19:12:22;;;;;;;21.57;8.93;;;4.10;99.90;;;2.14;100.00;102322.59;10449629;27;98006;-82
2023/12/16 19:17:25;;;;;;;17.50;8.03;;;4.10;99.90;;;2.10;100.00;102331.53;10454769;27;97064;-82
2023/12/16 19:22:29;;;;;;;20.60;8.83;;;4.00;99.90;;;2.06;100.00;102335.19;10474467;27;97104;-82
2023/12/16 19:27:32;;;;;;;19.77;8.47;;;4.10;99.90;;;1.89;100.00;102332.38;10494493;27;98773;-82
2023/12/16 19:32:36;;;;;;;19.30;9.70;;;4.00;99.90;;;1.79;100.00;102339.72;10439330;27;96569;-82
2023/12/16 19:37:40;;;;;;;20.90;9.90;;;3.80;99.90;;;1.64;100.00;102350.81;10438053;27;96524;-82
2023/12/16 19:42:44;;;;;;;19.80;9.33;;;3.70;99.90;;;1.57;100.00;102350.19;10485226;27;96529;-81
2023/12/16 19:47:48;;;;;;;18.87;9.30;;;3.60;99.90;;;1.46;100.00;102352.34;10469285;27;97046;-82
2023/12/16 19:52:53;;;;;;;20.07;8.87;;;3.50;99.90;;;1.40;100.00;102356.97;10445356;27;96701;-82
2023/12/16 19:57:57;;;;;;;18.20;7.37;;;3.40;99.90;;;1.37;100.00;102357.06;10452317;27;96593;-82
2023/12/16 20:03:00;;;;;;;16.47;7.13;;;3.40;99.90;;;1.50;100.00;102366.16;10443540;27;97877;-82
2023/12/16 20:08:04;;;;;;;17.97;8.03;;;3.40;99.90;;;1.57;100.00;102367.69;10456370;27;97007;-82
2023/12/16 20:13:09;;;;;;;20.93;9.00;;;3.50;99.90;;;1.53;100.00;102355.59;10473977;27;96779;-82
2023/12/16 20:18:14;;;;;;;27.40;9.93;;;3.50;99.90;;;1.52;100.00;102367.00;10463038;27;96630;-82
2023/12/16 20:23:18;;;;;;;29.60;11.63;;;3.50;99.90;;;1.58;100.00;102374.63;10441727;27;97909;-82
2023/12/16 20:28:22;;;;;;;23.43;11.00;;;3.60;99.90;;;1.56;100.00;102364.22;10436676;27;97292;-82
2023/12/16 20:33:25;;;;;;;26.23;11.70;;;3.60;99.90;;;1.63;100.00;102372.69;10460364;27;96863;-82
2023/12/16 20:43:52;;;;;;;30.83;11.95;;;3.60;99.90;;;1.55;100.00;102375.56;10482965;27;97550;-83
2023/12/16 20:48:57;;;;;;;25.13;9.20;;;3.60;99.90;;;1.64;100.00;102381.41;10483562;27;96696;-83